map of MRI home
MRI - Airport
Location
City:  Anchorage, Alaska, United States
Name:Merrill Field
ICAO:PAMR
IATA:MRI
FAA LID:MRI

Details
Type:Airport (Airfield)
Use:Public/Civil
Latitude:6112'49"N (61.213545)
Longitude:14950'41"W (-149.844723)
Datum:WGS 1984
Elevation:137 ft (42 m)
Variation:15.94E (WMM2015v2 magnetic declination)
-0.31 annual change
Runways:3
Longest:4000 × 100 ft (1219 × 30.5 m), paved

Time
Time Zone:UTC-9 (DST-8)
Local Time:

Weather
METAR:PAMR 041353Z 03004KT 3SM BR SCT014 BKN025 OVC038 M06/M07 A3004 RMK AO2 SNB1259E21 SLP175 P0000 T10561072 $

Related Locations
Nearby:
Farthest:FAAF: 10549 mi / 16976 km
Struisbaai [Andrew's Field Airport], WC, ZA

Find:

   beyond  
but within

Other Information
Maps:
NOTAMs:
Links:
Sources:

  
  • flag of United States
  • flag of Alaska
  • flag of Anchorage
  

Airport Diagram

Airport diagram for MRI

Airport diagram PDF from FAA

Sectional Chart

Flight Planning
at skyvector.com

Satellite Image

Google Maps Satellite view

 

Copyright © 2004-2019 Karl L. Swartz. All rights reserved.
The Great Circle Mapper name and logo are trademarks of the Great Circle Mapper.
All other trademarks mentioned herein belong to their respective owners.
Please see credits for attibutions and further copyright information.

  Follow gcmap on Facebook Follow gcmap on Twitter GCmap on LinkedIn

hCard Microformat

Geo Microformat